sensor_id;sensor_type;location;lat;lon;timestamp;pressure;altitude;pressure_sealevel;temperature;humidity
15489;BME280;7846;48.830;9.116;2022-08-19T00:00:34;97409.19;;;27.89;49.54
15489;BME280;7846;48.830;9.116;2022-08-19T00:03:00;97400.31;;;28.18;48.98
15489;BME280;7846;48.830;9.116;2022-08-19T00:05:25;97404.13;;;27.62;49.75
15489;BME280;7846;48.830;9.116;2022-08-19T00:07:54;97404.72;;;28.09;48.97
15489;BME280;7846;48.830;9.116;2022-08-19T00:10:20;97402.78;;;28.14;48.85
15489;BME280;7846;48.830;9.116;2022-08-19T00:12:46;97395.16;;;27.82;49.78
15489;BME280;7846;48.830;9.116;2022-08-19T00:15:15;97397.91;;;27.67;50.12
15489;BME280;7846;48.830;9.116;2022-08-19T00:17:43;97404.91;;;27.78;49.63
15489;BME280;7846;48.830;9.116;2022-08-19T00:20:17;97405.66;;;27.89;49.56
15489;BME280;7846;48.830;9.116;2022-08-19T00:22:46;97413.81;;;27.73;49.83
15489;BME280;7846;48.830;9.116;2022-08-19T00:25:13;97408.16;;;27.70;49.74
15489;BME280;7846;48.830;9.116;2022-08-19T00:27:39;97409.88;;;27.50;50.24
15489;BME280;7846;48.830;9.116;2022-08-19T00:30:05;97412.13;;;27.93;49.78
15489;BME280;7846;48.830;9.116;2022-08-19T00:32:31;97404.50;;;27.40;50.66
15489;BME280;7846;48.830;9.116;2022-08-19T00:34:58;97394.63;;;27.70;49.88
15489;BME280;7846;48.830;9.116;2022-08-19T00:37:24;97388.59;;;27.88;49.74
15489;BME280;7846;48.830;9.116;2022-08-19T00:39:53;97388.78;;;28.02;49.37
15489;BME280;7846;48.830;9.116;2022-08-19T00:42:21;97375.88;;;27.29;51.04
15489;BME280;7846;48.830;9.116;2022-08-19T00:44:47;97370.00;;;27.71;49.93
15489;BME280;7846;48.830;9.116;2022-08-19T00:47:14;97368.72;;;27.59;50.21
15489;BME280;7846;48.830;9.116;2022-08-19T00:49:49;97370.25;;;27.85;49.68
15489;BME280;7846;48.830;9.116;2022-08-19T00:52:26;97376.50;;;27.76;49.98
15489;BME280;7846;48.830;9.116;2022-08-19T00:54:56;97381.63;;;28.21;48.96
15489;BME280;7846;48.830;9.116;2022-08-19T00:57:28;97385.56;;;28.00;49.61
15489;BME280;7846;48.830;9.116;2022-08-19T00:59:56;97388.13;;;27.76;49.84
15489;BME280;7846;48.830;9.116;2022-08-19T01:02:26;97386.78;;;28.18;49.17
15489;BME280;7846;48.830;9.116;2022-08-19T01:04:53;97401.13;;;27.79;49.67
15489;BME280;7846;48.830;9.116;2022-08-19T01:07:19;97399.56;;;28.12;49.12
15489;BME280;7846;48.830;9.116;2022-08-19T01:09:46;97401.31;;;27.93;49.51
15489;BME280;7846;48.830;9.116;2022-08-19T01:12:11;97394.63;;;27.70;50.07
15489;BME280;7846;48.830;9.116;2022-08-19T01:14:39;97398.06;;;27.91;49.65
15489;BME280;7846;48.830;9.116;2022-08-19T01:17:07;97392.13;;;27.89;49.80
15489;BME280;7846;48.830;9.116;2022-08-19T01:19:37;97398.47;;;27.64;50.22
15489;BME280;7846;48.830;9.116;2022-08-19T01:22:12;97387.44;;;27.50;50.78
15489;BME280;7846;48.830;9.116;2022-08-19T01:24:40;97390.31;;;27.69;50.15
15489;BME280;7846;48.830;9.116;2022-08-19T01:27:07;97379.38;;;27.94;49.63
15489;BME280;7846;48.830;9.116;2022-08-19T01:29:34;97390.69;;;28.02;49.46
15489;BME280;7846;48.830;9.116;2022-08-19T01:32:02;97390.28;;;27.79;49.91
15489;BME280;7846;48.830;9.116;2022-08-19T01:34:27;97395.41;;;27.86;49.47
15489;BME280;7846;48.830;9.116;2022-08-19T01:36:53;97387.69;;;28.08;49.30
15489;BME280;7846;48.830;9.116;2022-08-19T01:39:22;97381.13;;;28.14;49.31
15489;BME280;7846;48.830;9.116;2022-08-19T01:41:48;97382.69;;;28.26;49.00
15489;BME280;7846;48.830;9.116;2022-08-19T01:44:15;97391.03;;;28.29;48.69
15489;BME280;7846;48.830;9.116;2022-08-19T01:46:42;97380.25;;;28.24;49.09
15489;BME280;7846;48.830;9.116;2022-08-19T01:49:09;97381.22;;;28.04;49.53
15489;BME280;7846;48.830;9.116;2022-08-19T01:51:34;97382.72;;;27.81;49.89
15489;BME280;7846;48.830;9.116;2022-08-19T01:54:00;97382.19;;;27.79;50.17
15489;BME280;7846;48.830;9.116;2022-08-19T01:56:25;97369.13;;;27.32;51.33
15489;BME280;7846;48.830;9.116;2022-08-19T01:58:54;97375.72;;;27.65;50.53
15489;BME280;7846;48.830;9.116;2022-08-19T02:01:21;97373.59;;;27.57;50.95
15489;BME280;7846;48.830;9.116;2022-08-19T02:03:46;97381.50;;;27.48;50.44
15489;BME280;7846;48.830;9.116;2022-08-19T02:06:12;97388.47;;;27.54;50.56
15489;BME280;7846;48.830;9.116;2022-08-19T02:08:40;97392.59;;;27.41;51.06
15489;BME280;7846;48.830;9.116;2022-08-19T02:11:06;97396.13;;;27.42;51.30
15489;BME280;7846;48.830;9.116;2022-08-19T02:13:35;97400.50;;;27.17;51.85
15489;BME280;7846;48.830;9.116;2022-08-19T02:16:00;97395.00;;;27.53;50.82
15489;BME280;7846;48.830;9.116;2022-08-19T02:18:27;97389.09;;;27.41;50.99
15489;BME280;7846;48.830;9.116;2022-08-19T02:20:55;97378.94;;;26.92;52.33
15489;BME280;7846;48.830;9.116;2022-08-19T02:23:22;97380.25;;;26.99;52.24
15489;BME280;7846;48.830;9.116;2022-08-19T02:25:48;97375.47;;;26.81;52.93
15489;BME280;7846;48.830;9.116;2022-08-19T02:28:13;97376.53;;;26.54;53.14
15489;BME280;7846;48.830;9.116;2022-08-19T02:30:41;97374.84;;;27.05;52.41
15489;BME280;7846;48.830;9.116;2022-08-19T02:33:07;97391.84;;;27.31;51.44
15489;BME280;7846;48.830;9.116;2022-08-19T02:35:33;97383.84;;;26.74;52.44
15489;BME280;7846;48.830;9.116;2022-08-19T02:37:58;97382.78;;;26.55;53.15
15489;BME280;7846;48.830;9.116;2022-08-19T02:40:49;97381.50;;;27.43;51.47
15489;BME280;7846;48.830;9.116;2022-08-19T02:43:16;97383.53;;;26.86;52.30
15489;BME280;7846;48.830;9.116;2022-08-19T02:45:42;97379.47;;;26.94;52.51
15489;BME280;7846;48.830;9.116;2022-08-19T02:48:07;97382.69;;;27.06;52.37
15489;BME280;7846;48.830;9.116;2022-08-19T02:50:37;97376.72;;;27.30;51.83
15489;BME280;7846;48.830;9.116;2022-08-19T02:53:04;97382.13;;;27.24;51.72
15489;BME280;7846;48.830;9.116;2022-08-19T02:55:31;97384.50;;;27.36;51.34
15489;BME280;7846;48.830;9.116;2022-08-19T02:57:59;97382.13;;;27.09;51.65
15489;BME280;7846;48.830;9.116;2022-08-19T03:00:25;97386.25;;;26.86;52.51
15489;BME280;7846;48.830;9.116;2022-08-19T03:02:51;97385.69;;;26.84;52.51
15489;BME280;7846;48.830;9.116;2022-08-19T03:05:16;97377.47;;;27.40;51.62
15489;BME280;7846;48.830;9.116;2022-08-19T03:07:42;97374.03;;;27.14;52.00
15489;BME280;7846;48.830;9.116;2022-08-19T03:10:08;97371.41;;;26.89;52.56
15489;BME280;7846;48.830;9.116;2022-08-19T03:12:38;97379.94;;;27.32;52.07
15489;BME280;7846;48.830;9.116;2022-08-19T03:15:06;97381.94;;;26.85;53.27
15489;BME280;7846;48.830;9.116;2022-08-19T03:17:33;97388.94;;;26.45;53.88
15489;BME280;7846;48.830;9.116;2022-08-19T03:19:58;97388.41;;;26.23;54.56
15489;BME280;7846;48.830;9.116;2022-08-19T03:22:23;97396.28;;;26.70;53.70
15489;BME280;7846;48.830;9.116;2022-08-19T03:24:50;97391.03;;;27.10;52.55
15489;BME280;7846;48.830;9.116;2022-08-19T03:27:15;97394.91;;;26.58;53.84
15489;BME280;7846;48.830;9.116;2022-08-19T03:29:42;97393.53;;;26.81;53.47
15489;BME280;7846;48.830;9.116;2022-08-19T03:32:07;97384.06;;;26.88;52.98
15489;BME280;7846;48.830;9.116;2022-08-19T03:34:35;97380.28;;;26.02;55.04
15489;BME280;7846;48.830;9.116;2022-08-19T03:37:06;97383.31;;;26.52;53.85
15489;BME280;7846;48.830;9.116;2022-08-19T03:39:32;97391.13;;;26.33;54.26
15489;BME280;7846;48.830;9.116;2022-08-19T03:41:58;97391.34;;;26.21;54.50
15489;BME280;7846;48.830;9.116;2022-08-19T03:44:28;97393.22;;;26.05;55.01
15489;BME280;7846;48.830;9.116;2022-08-19T03:46:58;97388.41;;;26.84;53.19
15489;BME280;7846;48.830;9.116;2022-08-19T03:49:27;97380.03;;;26.40;54.36
15489;BME280;7846;48.830;9.116;2022-08-19T03:51:54;97375.41;;;25.89;55.12
15489;BME280;7846;48.830;9.116;2022-08-19T03:54:22;97381.13;;;26.74;53.25
15489;BME280;7846;48.830;9.116;2022-08-19T03:56:49;97386.53;;;26.18;54.69
15489;BME280;7846;48.830;9.116;2022-08-19T03:59:19;97384.09;;;26.37;54.13
15489;BME280;7846;48.830;9.116;2022-08-19T04:01:45;97394.22;;;25.74;55.31
15489;BME280;7846;48.830;9.116;2022-08-19T04:04:11;97394.34;;;26.15;54.68
15489;BME280;7846;48.830;9.116;2022-08-19T04:06:38;97395.22;;;25.52;55.84
15489;BME280;7846;48.830;9.116;2022-08-19T04:09:05;97389.88;;;25.73;55.54
15489;BME280;7846;48.830;9.116;2022-08-19T04:11:35;97385.19;;;26.26;54.31
15489;BME280;7846;48.830;9.116;2022-08-19T04:14:00;97396.38;;;25.72;55.54
15489;BME280;7846;48.830;9.116;2022-08-19T04:16:29;97393.25;;;26.36;54.22
15489;BME280;7846;48.830;9.116;2022-08-19T04:18:56;97389.50;;;26.42;54.06
15489;BME280;7846;48.830;9.116;2022-08-19T04:21:25;97396.28;;;26.70;53.59
15489;BME280;7846;48.830;9.116;2022-08-19T04:23:52;97394.31;;;26.04;54.57
15489;BME280;7846;48.830;9.116;2022-08-19T04:26:20;97397.59;;;25.44;56.17
15489;BME280;7846;48.830;9.116;2022-08-19T04:28:46;97398.09;;;26.29;54.29
15489;BME280;7846;48.830;9.116;2022-08-19T04:31:20;97394.38;;;26.50;53.81
15489;BME280;7846;48.830;9.116;2022-08-19T04:33:52;97388.41;;;26.33;54.02
15489;BME280;7846;48.830;9.116;2022-08-19T04:36:23;97391.09;;;26.43;53.95
15489;BME280;7846;48.830;9.116;2022-08-19T04:38:58;97383.28;;;26.16;54.48
15489;BME280;7846;48.830;9.116;2022-08-19T04:41:24;97383.28;;;26.16;54.82
15489;BME280;7846;48.830;9.116;2022-08-19T04:44:09;97384.41;;;26.66;53.07
15489;BME280;7846;48.830;9.116;2022-08-19T04:46:35;97388.69;;;26.42;53.61
15489;BME280;7846;48.830;9.116;2022-08-19T04:49:02;97397.59;;;26.42;53.92
15489;BME280;7846;48.830;9.116;2022-08-19T04:51:31;97402.44;;;26.15;54.38
15489;BME280;7846;48.830;9.116;2022-08-19T04:53:57;97408.84;;;25.88;55.14
15489;BME280;7846;48.830;9.116;2022-08-19T04:56:25;97405.44;;;26.69;53.33
15489;BME280;7846;48.830;9.116;2022-08-19T04:58:53;97391.38;;;26.37;54.26
15489;BME280;7846;48.830;9.116;2022-08-19T05:01:26;97406.19;;;26.14;54.77
15489;BME280;7846;48.830;9.116;2022-08-19T05:03:53;97405.38;;;25.98;54.91
15489;BME280;7846;48.830;9.116;2022-08-19T05:06:20;97410.84;;;26.49;54.23
15489;BME280;7846;48.830;9.116;2022-08-19T05:08:46;97406.19;;;26.29;54.55
15489;BME280;7846;48.830;9.116;2022-08-19T05:11:17;97411.06;;;26.17;54.89
15489;BME280;7846;48.830;9.116;2022-08-19T05:13:44;97414.91;;;26.46;54.27
15489;BME280;7846;48.830;9.116;2022-08-19T05:16:12;97416.16;;;26.03;55.31
15489;BME280;7846;48.830;9.116;2022-08-19T05:18:39;97425.13;;;26.34;54.59
15489;BME280;7846;48.830;9.116;2022-08-19T05:21:23;97424.81;;;26.00;55.34
15489;BME280;7846;48.830;9.116;2022-08-19T05:24:07;97433.22;;;26.44;54.62
15489;BME280;7846;48.830;9.116;2022-08-19T05:26:37;97437.22;;;26.21;54.97
15489;BME280;7846;48.830;9.116;2022-08-19T05:29:03;97444.38;;;25.75;55.48
15489;BME280;7846;48.830;9.116;2022-08-19T05:31:30;97460.44;;;26.12;55.36
15489;BME280;7846;48.830;9.116;2022-08-19T05:33:56;97469.44;;;26.69;54.12
15489;BME280;7846;48.830;9.116;2022-08-19T05:36:32;97469.63;;;26.21;54.99
15489;BME280;7846;48.830;9.116;2022-08-19T05:39:02;97484.78;;;26.38;54.26
15489;BME280;7846;48.830;9.116;2022-08-19T05:41:27;97486.91;;;26.25;54.60
15489;BME280;7846;48.830;9.116;2022-08-19T05:43:57;97491.78;;;26.39;54.20
15489;BME280;7846;48.830;9.116;2022-08-19T05:46:23;97490.06;;;26.02;55.17
15489;BME280;7846;48.830;9.116;2022-08-19T05:48:49;97489.22;;;25.81;55.75
15489;BME280;7846;48.830;9.116;2022-08-19T05:51:15;97481.81;;;26.34;54.60
15489;BME280;7846;48.830;9.116;2022-08-19T05:53:45;97497.53;;;26.52;53.86
15489;BME280;7846;48.830;9.116;2022-08-19T05:56:13;97489.09;;;26.34;54.76
15489;BME280;7846;48.830;9.116;2022-08-19T05:58:42;97493.13;;;26.31;54.61
15489;BME280;7846;48.830;9.116;2022-08-19T06:01:17;97492.94;;;26.68;53.70
15489;BME280;7846;48.830;9.116;2022-08-19T06:03:43;97491.75;;;26.23;54.94
15489;BME280;7846;48.830;9.116;2022-08-19T06:06:11;97494.28;;;26.66;53.96
15489;BME280;7846;48.830;9.116;2022-08-19T06:08:38;97494.56;;;26.69;53.90
15489;BME280;7846;48.830;9.116;2022-08-19T06:11:21;97494.81;;;26.52;53.87
15489;BME280;7846;48.830;9.116;2022-08-19T06:13:50;97495.63;;;26.68;53.88
15489;BME280;7846;48.830;9.116;2022-08-19T06:16:21;97497.16;;;26.28;54.81
15489;BME280;7846;48.830;9.116;2022-08-19T06:18:51;97497.00;;;27.27;52.75
15489;BME280;7846;48.830;9.116;2022-08-19T06:21:19;97495.38;;;27.11;52.90
15489;BME280;7846;48.830;9.116;2022-08-19T06:23:46;97492.38;;;26.92;53.23
15489;BME280;7846;48.830;9.116;2022-08-19T06:26:14;97489.69;;;27.27;52.71
15489;BME280;7846;48.830;9.116;2022-08-19T06:28:40;97491.84;;;27.31;52.44
15489;BME280;7846;48.830;9.116;2022-08-19T06:31:21;97494.81;;;27.29;52.43
15489;BME280;7846;48.830;9.116;2022-08-19T06:33:47;97480.25;;;26.94;53.19
15489;BME280;7846;48.830;9.116;2022-08-19T06:36:32;97491.31;;;26.93;53.37
15489;BME280;7846;48.830;9.116;2022-08-19T06:39:09;97488.50;;;26.11;55.47
15489;BME280;7846;48.830;9.116;2022-08-19T06:41:38;97496.34;;;26.28;54.90
15489;BME280;7846;48.830;9.116;2022-08-19T06:44:04;97497.63;;;26.00;55.48
15489;BME280;7846;48.830;9.116;2022-08-19T06:46:31;97498.50;;;26.21;54.99
15489;BME280;7846;48.830;9.116;2022-08-19T06:48:58;97498.88;;;26.65;53.79
15489;BME280;7846;48.830;9.116;2022-08-19T06:51:24;97502.91;;;26.52;53.97
15489;BME280;7846;48.830;9.116;2022-08-19T06:53:51;97496.34;;;26.28;54.70
15489;BME280;7846;48.830;9.116;2022-08-19T06:56:19;97509.59;;;26.35;54.03
15489;BME280;7846;48.830;9.116;2022-08-19T06:58:46;97504.38;;;26.02;54.95
15489;BME280;7846;48.830;9.116;2022-08-19T07:01:12;97507.63;;;26.10;55.26
15489;BME280;7846;48.830;9.116;2022-08-19T07:03:39;97501.75;;;25.60;56.19
15489;BME280;7846;48.830;9.116;2022-08-19T07:06:13;97499.59;;;26.30;54.51
15489;BME280;7846;48.830;9.116;2022-08-19T07:08:40;97497.34;;;26.01;55.22
15489;BME280;7846;48.830;9.116;2022-08-19T07:11:09;97507.81;;;25.88;55.41
15489;BME280;7846;48.830;9.116;2022-08-19T07:13:37;97507.88;;;25.50;56.77
15489;BME280;7846;48.830;9.116;2022-08-19T07:16:22;97507.28;;;25.91;56.34
15489;BME280;7846;48.830;9.116;2022-08-19T07:18:49;97508.09;;;25.81;56.16
15489;BME280;7846;48.830;9.116;2022-08-19T07:21:22;97507.09;;;26.08;55.26
15489;BME280;7846;48.830;9.116;2022-08-19T07:23:48;97513.59;;;26.12;55.49
15489;BME280;7846;48.830;9.116;2022-08-19T07:26:15;97516.44;;;26.78;53.65
15489;BME280;7846;48.830;9.116;2022-08-19T07:28:41;97517.69;;;26.40;54.05
15489;BME280;7846;48.830;9.116;2022-08-19T07:31:10;97522.13;;;26.97;53.41
15489;BME280;7846;48.830;9.116;2022-08-19T07:33:35;97518.84;;;26.64;53.59
15489;BME280;7846;48.830;9.116;2022-08-19T07:36:06;97519.91;;;26.58;54.40
15489;BME280;7846;48.830;9.116;2022-08-19T07:38:35;97517.78;;;26.81;53.63
15489;BME280;7846;48.830;9.116;2022-08-19T07:41:00;97529.69;;;26.85;53.47
15489;BME280;7846;48.830;9.116;2022-08-19T07:43:26;97522.13;;;27.07;52.70
15489;BME280;7846;48.830;9.116;2022-08-19T07:45:53;97516.13;;;26.54;54.32
15489;BME280;7846;48.830;9.116;2022-08-19T07:48:25;97519.97;;;27.14;53.01
15489;BME280;7846;48.830;9.116;2022-08-19T07:50:56;97522.16;;;27.12;52.57
15489;BME280;7846;48.830;9.116;2022-08-19T07:53:22;97524.56;;;27.14;52.44
15489;BME280;7846;48.830;9.116;2022-08-19T07:55:48;97523.66;;;26.42;54.33
15489;BME280;7846;48.830;9.116;2022-08-19T07:58:17;97528.34;;;27.13;52.83
15489;BME280;7846;48.830;9.116;2022-08-19T08:00:46;97513.13;;;26.40;54.40
15489;BME280;7846;48.830;9.116;2022-08-19T08:03:14;97522.31;;;26.44;54.39
15489;BME280;7846;48.830;9.116;2022-08-19T08:05:41;97523.47;;;26.94;53.13
15489;BME280;7846;48.830;9.116;2022-08-19T08:08:28;97525.09;;;26.75;53.59
15489;BME280;7846;48.830;9.116;2022-08-19T08:11:13;97535.38;;;27.14;52.77
15489;BME280;7846;48.830;9.116;2022-08-19T08:13:38;97535.66;;;25.98;55.40
15489;BME280;7846;48.830;9.116;2022-08-19T08:16:06;97533.88;;;26.29;54.97
15489;BME280;7846;48.830;9.116;2022-08-19T08:18:32;97528.50;;;26.35;54.66
15489;BME280;7846;48.830;9.116;2022-08-19T08:20:59;97533.38;;;26.43;54.43
15489;BME280;7846;48.830;9.116;2022-08-19T08:23:26;97539.28;;;26.35;54.99
15489;BME280;7846;48.830;9.116;2022-08-19T08:25:55;97532.09;;;26.56;54.53
15489;BME280;7846;48.830;9.116;2022-08-19T08:28:22;97540.53;;;27.15;52.97
15489;BME280;7846;48.830;9.116;2022-08-19T08:30:49;97548.19;;;26.30;54.86
15489;BME280;7846;48.830;9.116;2022-08-19T08:33:19;97547.06;;;26.21;55.42
15489;BME280;7846;48.830;9.116;2022-08-19T08:35:45;97534.53;;;26.72;54.22
15489;BME280;7846;48.830;9.116;2022-08-19T08:38:12;97543.34;;;26.42;54.92
15489;BME280;7846;48.830;9.116;2022-08-19T08:40:43;97541.81;;;26.67;54.09
15489;BME280;7846;48.830;9.116;2022-08-19T08:46:00;97540.19;;;26.66;54.29
15489;BME280;7846;48.830;9.116;2022-08-19T08:51:04;97537.78;;;26.74;54.58
15489;BME280;7846;48.830;9.116;2022-08-19T08:53:31;97535.63;;;27.38;53.10
15489;BME280;7846;48.830;9.116;2022-08-19T08:56:02;97538.59;;;27.52;52.48
15489;BME280;7846;48.830;9.116;2022-08-19T08:58:43;97541.03;;;27.43;52.68
15489;BME280;7846;48.830;9.116;2022-08-19T09:01:12;97550.75;;;27.08;53.57
15489;BME280;7846;48.830;9.116;2022-08-19T09:03:44;97541.03;;;27.38;53.26
15489;BME280;7846;48.830;9.116;2022-08-19T09:06:36;97545.09;;;27.25;53.41
15489;BME280;7846;48.830;9.116;2022-08-19T09:14:34;97545.09;;;27.05;53.93
15489;BME280;7846;48.830;9.116;2022-08-19T09:17:01;97538.06;;;27.09;53.97
15489;BME280;7846;48.830;9.116;2022-08-19T09:19:35;97548.56;;;27.77;52.68
15489;BME280;7846;48.830;9.116;2022-08-19T09:22:02;97549.69;;;26.89;54.20
15489;BME280;7846;48.830;9.116;2022-08-19T09:24:32;97549.41;;;27.52;53.40
15489;BME280;7846;48.830;9.116;2022-08-19T09:26:57;97552.94;;;27.42;53.01
15489;BME280;7846;48.830;9.116;2022-08-19T09:29:23;97555.09;;;27.04;54.34
15489;BME280;7846;48.830;9.116;2022-08-19T09:31:50;97549.41;;;27.41;53.37
15489;BME280;7846;48.830;9.116;2022-08-19T09:34:15;97544.53;;;27.43;52.92
15489;BME280;7846;48.830;9.116;2022-08-19T09:36:44;97541.03;;;27.07;54.29
15489;BME280;7846;48.830;9.116;2022-08-19T09:39:10;97550.78;;;27.29;53.60
15489;BME280;7846;48.830;9.116;2022-08-19T09:41:36;97544.69;;;27.98;52.56
15489;BME280;7846;48.830;9.116;2022-08-19T09:44:02;97553.72;;;27.58;53.02
15489;BME280;7846;48.830;9.116;2022-08-19T09:46:29;97551.75;;;27.94;51.88
15489;BME280;7846;48.830;9.116;2022-08-19T09:48:59;97551.25;;;27.61;53.13
15489;BME280;7846;48.830;9.116;2022-08-19T09:51:26;97550.44;;;27.86;52.60
15489;BME280;7846;48.830;9.116;2022-08-19T09:53:58;97555.06;;;27.60;52.84
15489;BME280;7846;48.830;9.116;2022-08-19T09:56:25;97547.91;;;28.05;52.11
15489;BME280;7846;48.830;9.116;2022-08-19T09:58:51;97558.28;;;27.67;52.86
15489;BME280;7846;48.830;9.116;2022-08-19T10:01:22;97565.03;;;27.85;52.64
15489;BME280;7846;48.830;9.116;2022-08-19T10:03:51;97560.72;;;27.79;52.63
15489;BME280;7846;48.830;9.116;2022-08-19T10:06:20;97560.41;;;27.96;52.12
15489;BME280;7846;48.830;9.116;2022-08-19T10:08:46;97562.44;;;28.25;51.31
15489;BME280;7846;48.830;9.116;2022-08-19T10:11:12;97560.91;;;28.03;52.01
15489;BME280;7846;48.830;9.116;2022-08-19T10:13:41;97558.56;;;27.76;52.46
15489;BME280;7846;48.830;9.116;2022-08-19T10:16:10;97560.47;;;27.50;52.85
15489;BME280;7846;48.830;9.116;2022-08-19T10:18:37;97560.19;;;28.47;51.10
15489;BME280;7846;48.830;9.116;2022-08-19T10:21:24;97564.84;;;28.86;50.36
15489;BME280;7846;48.830;9.116;2022-08-19T10:23:52;97548.66;;;28.26;51.38
15489;BME280;7846;48.830;9.116;2022-08-19T10:26:24;97552.94;;;28.37;51.07
15489;BME280;7846;48.830;9.116;2022-08-19T10:28:50;97562.81;;;28.62;50.41
15489;BME280;7846;48.830;9.116;2022-08-19T10:31:18;97553.78;;;28.28;51.44
15489;BME280;7846;48.830;9.116;2022-08-19T10:33:45;97542.94;;;27.37;53.01
15489;BME280;7846;48.830;9.116;2022-08-19T10:36:13;97548.72;;;28.65;50.91
15489;BME280;7846;48.830;9.116;2022-08-19T10:38:44;97556.22;;;28.79;49.92
15489;BME280;7846;48.830;9.116;2022-08-19T10:41:14;97539.38;;;28.32;51.10
15489;BME280;7846;48.830;9.116;2022-08-19T10:43:41;97541.34;;;28.27;50.45
15489;BME280;7846;48.830;9.116;2022-08-19T10:46:12;97542.72;;;28.68;49.84
15489;BME280;7846;48.830;9.116;2022-08-19T10:48:38;97544.84;;;28.27;50.19
15489;BME280;7846;48.830;9.116;2022-08-19T10:51:04;97543.88;;;28.57;49.58
15489;BME280;7846;48.830;9.116;2022-08-19T10:53:49;97535.91;;;28.76;49.66
15489;BME280;7846;48.830;9.116;2022-08-19T10:56:14;97544.34;;;28.69;49.04
15489;BME280;7846;48.830;9.116;2022-08-19T10:58:59;97546.59;;;28.57;49.57
15489;BME280;7846;48.830;9.116;2022-08-19T11:01:26;97545.53;;;28.53;49.79
15489;BME280;7846;48.830;9.116;2022-08-19T11:03:52;97542.56;;;28.94;48.44
15489;BME280;7846;48.830;9.116;2022-08-19T11:06:18;97540.56;;;28.70;49.14
15489;BME280;7846;48.830;9.116;2022-08-19T11:08:44;97538.81;;;29.24;48.26
15489;BME280;7846;48.830;9.116;2022-08-19T11:11:11;97532.44;;;30.11;46.79
15489;BME280;7846;48.830;9.116;2022-08-19T11:13:40;97537.72;;;30.02;46.92
15489;BME280;7846;48.830;9.116;2022-08-19T11:16:09;97526.72;;;29.70;47.01
15489;BME280;7846;48.830;9.116;2022-08-19T11:18:37;97536.09;;;29.53;47.80
15489;BME280;7846;48.830;9.116;2022-08-19T11:21:10;97535.06;;;30.21;45.52
15489;BME280;7846;48.830;9.116;2022-08-19T11:23:36;97527.06;;;29.34;47.25
15489;BME280;7846;48.830;9.116;2022-08-19T11:26:02;97532.25;;;29.30;47.44
15489;BME280;7846;48.830;9.116;2022-08-19T11:28:28;97526.66;;;29.75;46.64
15489;BME280;7846;48.830;9.116;2022-08-19T11:30:56;97526.19;;;29.92;46.38
15489;BME280;7846;48.830;9.116;2022-08-19T11:33:22;97526.34;;;29.23;47.14
15489;BME280;7846;48.830;9.116;2022-08-19T11:35:49;97523.31;;;30.26;44.87
15489;BME280;7846;48.830;9.116;2022-08-19T11:38:15;97522.25;;;30.65;43.95
15489;BME280;7846;48.830;9.116;2022-08-19T11:40:40;97536.63;;;30.65;44.07
15489;BME280;7846;48.830;9.116;2022-08-19T11:43:07;97518.34;;;29.66;46.11
15489;BME280;7846;48.830;9.116;2022-08-19T11:45:33;97531.28;;;30.60;44.09
15489;BME280;7846;48.830;9.116;2022-08-19T11:48:04;97525.91;;;30.55;44.37
15489;BME280;7846;48.830;9.116;2022-08-19T11:50:30;97535.19;;;29.87;45.07
15489;BME280;7846;48.830;9.116;2022-08-19T11:52:58;97532.47;;;30.54;44.20
15489;BME280;7846;48.830;9.116;2022-08-19T11:55:25;97527.13;;;29.53;45.63
15489;BME280;7846;48.830;9.116;2022-08-19T11:57:50;97532.94;;;29.94;45.40
15489;BME280;7846;48.830;9.116;2022-08-19T12:00:16;97531.38;;;29.88;44.93
15489;BME280;7846;48.830;9.116;2022-08-19T12:02:41;97521.00;;;30.38;44.20
15489;BME280;7846;48.830;9.116;2022-08-19T12:05:07;97527.59;;;30.51;44.19
15489;BME280;7846;48.830;9.116;2022-08-19T12:07:33;97520.53;;;31.06;42.48
15489;BME280;7846;48.830;9.116;2022-08-19T12:10:00;97524.75;;;31.31;42.49
15489;BME280;7846;48.830;9.116;2022-08-19T12:12:27;97524.03;;;31.07;43.05
15489;BME280;7846;48.830;9.116;2022-08-19T12:14:53;97514.97;;;31.44;42.35
15489;BME280;7846;48.830;9.116;2022-08-19T12:17:26;97522.44;;;32.35;40.71
15489;BME280;7846;48.830;9.116;2022-08-19T12:19:53;97518.13;;;32.34;40.76
15489;BME280;7846;48.830;9.116;2022-08-19T12:22:18;97524.19;;;31.76;40.78
15489;BME280;7846;48.830;9.116;2022-08-19T12:24:45;97517.09;;;30.25;43.92
15489;BME280;7846;48.830;9.116;2022-08-19T12:27:13;97513.00;;;30.28;44.19
15489;BME280;7846;48.830;9.116;2022-08-19T12:29:39;97505.59;;;29.67;44.65
15489;BME280;7846;48.830;9.116;2022-08-19T12:32:07;97521.09;;;30.71;42.94
15489;BME280;7846;48.830;9.116;2022-08-19T12:34:33;97511.44;;;30.97;41.99
15489;BME280;7846;48.830;9.116;2022-08-19T12:37:02;97513.44;;;31.98;40.63
15489;BME280;7846;48.830;9.116;2022-08-19T12:39:27;97506.75;;;30.46;42.39
15489;BME280;7846;48.830;9.116;2022-08-19T12:41:55;97506.75;;;31.17;41.28
15489;BME280;7846;48.830;9.116;2022-08-19T12:44:23;97516.59;;;31.31;41.66
15489;BME280;7846;48.830;9.116;2022-08-19T12:46:49;97511.16;;;32.28;39.57
15489;BME280;7846;48.830;9.116;2022-08-19T12:49:15;97513.91;;;32.64;38.62
15489;BME280;7846;48.830;9.116;2022-08-19T12:51:41;97508.25;;;32.97;38.85
15489;BME280;7846;48.830;9.116;2022-08-19T12:54:08;97513.72;;;32.61;38.45
15489;BME280;7846;48.830;9.116;2022-08-19T12:56:35;97516.50;;;33.06;38.54
15489;BME280;7846;48.830;9.116;2022-08-19T12:59:02;97520.94;;;33.46;37.95
15489;BME280;7846;48.830;9.116;2022-08-19T13:01:28;97525.38;;;34.13;36.93
15489;BME280;7846;48.830;9.116;2022-08-19T13:03:57;97519.63;;;33.84;36.98
15489;BME280;7846;48.830;9.116;2022-08-19T13:06:23;97524.38;;;34.01;36.96
15489;BME280;7846;48.830;9.116;2022-08-19T13:08:48;97526.09;;;32.67;38.23
15489;BME280;7846;48.830;9.116;2022-08-19T13:11:17;97527.06;;;32.85;38.04
15489;BME280;7846;48.830;9.116;2022-08-19T13:13:45;97530.03;;;32.11;39.58
15489;BME280;7846;48.830;9.116;2022-08-19T13:16:13;97522.53;;;33.47;38.11
15489;BME280;7846;48.830;9.116;2022-08-19T13:18:40;97522.88;;;33.55;37.71
15489;BME280;7846;48.830;9.116;2022-08-19T13:21:09;97527.16;;;33.78;37.73
15489;BME280;7846;48.830;9.116;2022-08-19T13:23:35;97528.16;;;33.91;37.40
15489;BME280;7846;48.830;9.116;2022-08-19T13:26:03;97524.13;;;34.28;36.94